sensor_id;sensor_type;location;lat;lon;timestamp;P1;P2;P0
74333;PMS5003;62753;40.394;-80.022;2023-04-24T00:02:05;4;4;
74333;PMS5003;62753;40.394;-80.022;2023-04-24T00:04:30;3;3;
74333;PMS5003;62753;40.394;-80.022;2023-04-24T00:06:56;4;4;
74333;PMS5003;62753;40.394;-80.022;2023-04-24T00:09:21;7;6;
74333;PMS5003;62753;40.394;-80.022;2023-04-24T00:11:47;4;4;
74333;PMS5003;62753;40.394;-80.022;2023-04-24T00:14:12;4;3;
74333;PMS5003;62753;40.394;-80.022;2023-04-24T00:16:38;4;4;
74333;PMS5003;62753;40.394;-80.022;2023-04-24T00:19:03;2;2;
74333;PMS5003;62753;40.394;-80.022;2023-04-24T00:21:28;4;4;
74333;PMS5003;62753;40.394;-80.022;2023-04-24T00:23:54;2;2;
74333;PMS5003;62753;40.394;-80.022;2023-04-24T00:26:20;3;2;
74333;PMS5003;62753;40.394;-80.022;2023-04-24T00:28:45;3;2;
74333;PMS5003;62753;40.394;-80.022;2023-04-24T00:31:11;2;2;
74333;PMS5003;62753;40.394;-80.022;2023-04-24T00:33:36;3;3;
74333;PMS5003;62753;40.394;-80.022;2023-04-24T00:36:02;3;3;
74333;PMS5003;62753;40.394;-80.022;2023-04-24T00:38:27;3;3;
74333;PMS5003;62753;40.394;-80.022;2023-04-24T00:40:52;4;3;
74333;PMS5003;62753;40.394;-80.022;2023-04-24T00:43:18;4;4;
74333;PMS5003;62753;40.394;-80.022;2023-04-24T00:45:43;4;4;
74333;PMS5003;62753;40.394;-80.022;2023-04-24T00:48:09;3;3;
74333;PMS5003;62753;40.394;-80.022;2023-04-24T00:50:35;5;5;
74333;PMS5003;62753;40.394;-80.022;2023-04-24T00:53:00;4;3;
74333;PMS5003;62753;40.394;-80.022;2023-04-24T00:55:25;3;3;
74333;PMS5003;62753;40.394;-80.022;2023-04-24T00:57:51;3;3;
74333;PMS5003;62753;40.394;-80.022;2023-04-24T01:00:16;4;4;
74333;PMS5003;62753;40.394;-80.022;2023-04-24T01:02:42;3;3;
74333;PMS5003;62753;40.394;-80.022;2023-04-24T01:05:07;3;3;
74333;PMS5003;62753;40.394;-80.022;2023-04-24T01:07:33;3;3;
74333;PMS5003;62753;40.394;-80.022;2023-04-24T01:09:58;5;4;
74333;PMS5003;62753;40.394;-80.022;2023-04-24T01:12:24;2;2;
74333;PMS5003;62753;40.394;-80.022;2023-04-24T01:14:49;4;4;
74333;PMS5003;62753;40.394;-80.022;2023-04-24T01:17:16;5;4;
74333;PMS5003;62753;40.394;-80.022;2023-04-24T01:19:40;3;3;
74333;PMS5003;62753;40.394;-80.022;2023-04-24T01:22:08;4;4;
74333;PMS5003;62753;40.394;-80.022;2023-04-24T01:24:31;5;5;
74333;PMS5003;62753;40.394;-80.022;2023-04-24T01:26:57;4;4;
74333;PMS5003;62753;40.394;-80.022;2023-04-24T01:29:22;4;4;
74333;PMS5003;62753;40.394;-80.022;2023-04-24T01:31:48;4;4;
74333;PMS5003;62753;40.394;-80.022;2023-04-24T01:34:13;5;5;
74333;PMS5003;62753;40.394;-80.022;2023-04-24T01:36:39;4;4;
74333;PMS5003;62753;40.394;-80.022;2023-04-24T01:39:04;5;5;
74333;PMS5003;62753;40.394;-80.022;2023-04-24T01:41:30;3;3;
74333;PMS5003;62753;40.394;-80.022;2023-04-24T01:43:55;3;3;
74333;PMS5003;62753;40.394;-80.022;2023-04-24T01:46:21;5;4;
74333;PMS5003;62753;40.394;-80.022;2023-04-24T01:48:46;5;5;
74333;PMS5003;62753;40.394;-80.022;2023-04-24T01:51:12;5;5;
74333;PMS5003;62753;40.394;-80.022;2023-04-24T01:53:37;4;4;
74333;PMS5003;62753;40.394;-80.022;2023-04-24T01:56:03;4;4;
74333;PMS5003;62753;40.394;-80.022;2023-04-24T01:58:28;5;4;
74333;PMS5003;62753;40.394;-80.022;2023-04-24T02:00:55;4;4;
74333;PMS5003;62753;40.394;-80.022;2023-04-24T02:03:19;5;4;
74333;PMS5003;62753;40.394;-80.022;2023-04-24T02:05:45;6;5;
74333;PMS5003;62753;40.394;-80.022;2023-04-24T02:08:11;4;4;
74333;PMS5003;62753;40.394;-80.022;2023-04-24T02:10:36;3;3;
74333;PMS5003;62753;40.394;-80.022;2023-04-24T02:13:01;4;3;
74333;PMS5003;62753;40.394;-80.022;2023-04-24T02:15:27;5;5;
74333;PMS5003;62753;40.394;-80.022;2023-04-24T02:17:53;5;4;
74333;PMS5003;62753;40.394;-80.022;2023-04-24T02:20:18;5;5;
74333;PMS5003;62753;40.394;-80.022;2023-04-24T02:22:43;4;4;
74333;PMS5003;62753;40.394;-80.022;2023-04-24T02:25:09;4;3;
74333;PMS5003;62753;40.394;-80.022;2023-04-24T02:27:35;5;4;
74333;PMS5003;62753;40.394;-80.022;2023-04-24T02:30:00;4;4;
74333;PMS5003;62753;40.394;-80.022;2023-04-24T02:32:25;4;4;
74333;PMS5003;62753;40.394;-80.022;2023-04-24T02:34:51;4;4;
74333;PMS5003;62753;40.394;-80.022;2023-04-24T02:37:17;4;4;
74333;PMS5003;62753;40.394;-80.022;2023-04-24T02:39:42;4;4;
74333;PMS5003;62753;40.394;-80.022;2023-04-24T02:42:07;4;4;
74333;PMS5003;62753;40.394;-80.022;2023-04-24T02:44:33;4;3;
74333;PMS5003;62753;40.394;-80.022;2023-04-24T02:46:58;4;3;
74333;PMS5003;62753;40.394;-80.022;2023-04-24T02:49:24;4;3;
74333;PMS5003;62753;40.394;-80.022;2023-04-24T02:51:49;5;5;
74333;PMS5003;62753;40.394;-80.022;2023-04-24T02:54:15;5;5;
74333;PMS5003;62753;40.394;-80.022;2023-04-24T02:56:40;5;4;
74333;PMS5003;62753;40.394;-80.022;2023-04-24T02:59:06;4;4;
74333;PMS5003;62753;40.394;-80.022;2023-04-24T03:01:31;4;4;
74333;PMS5003;62753;40.394;-80.022;2023-04-24T03:03:57;7;7;
74333;PMS5003;62753;40.394;-80.022;2023-04-24T03:06:22;4;4;
74333;PMS5003;62753;40.394;-80.022;2023-04-24T03:08:48;5;4;
74333;PMS5003;62753;40.394;-80.022;2023-04-24T03:11:13;4;4;
74333;PMS5003;62753;40.394;-80.022;2023-04-24T03:13:39;5;4;
74333;PMS5003;62753;40.394;-80.022;2023-04-24T03:16:04;5;5;
74333;PMS5003;62753;40.394;-80.022;2023-04-24T03:18:30;4;4;
74333;PMS5003;62753;40.394;-80.022;2023-04-24T03:20:55;4;4;
74333;PMS5003;62753;40.394;-80.022;2023-04-24T03:23:21;4;4;
74333;PMS5003;62753;40.394;-80.022;2023-04-24T03:25:46;4;4;
74333;PMS5003;62753;40.394;-80.022;2023-04-24T03:28:12;5;5;
74333;PMS5003;62753;40.394;-80.022;2023-04-24T03:30:37;5;5;
74333;PMS5003;62753;40.394;-80.022;2023-04-24T03:33:03;5;5;
74333;PMS5003;62753;40.394;-80.022;2023-04-24T03:35:28;4;4;
74333;PMS5003;62753;40.394;-80.022;2023-04-24T03:37:54;7;6;
74333;PMS5003;62753;40.394;-80.022;2023-04-24T03:40:19;4;4;
74333;PMS5003;62753;40.394;-80.022;2023-04-24T03:42:45;5;5;
74333;PMS5003;62753;40.394;-80.022;2023-04-24T03:45:10;5;5;
74333;PMS5003;62753;40.394;-80.022;2023-04-24T03:47:36;6;6;
74333;PMS5003;62753;40.394;-80.022;2023-04-24T03:50:02;4;4;
74333;PMS5003;62753;40.394;-80.022;2023-04-24T03:52:27;4;4;
74333;PMS5003;62753;40.394;-80.022;2023-04-24T03:54:52;4;4;
74333;PMS5003;62753;40.394;-80.022;2023-04-24T03:57:18;5;5;
74333;PMS5003;62753;40.394;-80.022;2023-04-24T03:59:43;5;5;
74333;PMS5003;62753;40.394;-80.022;2023-04-24T04:02:09;6;6;
74333;PMS5003;62753;40.394;-80.022;2023-04-24T04:04:34;3;3;
74333;PMS5003;62753;40.394;-80.022;2023-04-24T04:07:00;5;5;
74333;PMS5003;62753;40.394;-80.022;2023-04-24T04:09:25;4;4;
74333;PMS5003;62753;40.394;-80.022;2023-04-24T04:11:51;7;6;
74333;PMS5003;62753;40.394;-80.022;2023-04-24T04:14:17;4;4;
74333;PMS5003;62753;40.394;-80.022;2023-04-24T04:16:42;5;4;
74333;PMS5003;62753;40.394;-80.022;2023-04-24T04:19:08;5;4;
74333;PMS5003;62753;40.394;-80.022;2023-04-24T04:21:33;5;5;
74333;PMS5003;62753;40.394;-80.022;2023-04-24T04:23:58;5;5;
74333;PMS5003;62753;40.394;-80.022;2023-04-24T04:26:24;5;5;
74333;PMS5003;62753;40.394;-80.022;2023-04-24T04:28:50;5;5;
74333;PMS5003;62753;40.394;-80.022;2023-04-24T04:31:15;5;5;
74333;PMS5003;62753;40.394;-80.022;2023-04-24T04:33:40;5;5;
74333;PMS5003;62753;40.394;-80.022;2023-04-24T04:36:06;4;4;
74333;PMS5003;62753;40.394;-80.022;2023-04-24T04:38:31;4;4;
74333;PMS5003;62753;40.394;-80.022;2023-04-24T04:40:57;6;6;
74333;PMS5003;62753;40.394;-80.022;2023-04-24T04:43:23;3;3;
74333;PMS5003;62753;40.394;-80.022;2023-04-24T04:45:48;5;4;
74333;PMS5003;62753;40.394;-80.022;2023-04-24T04:48:14;5;4;
74333;PMS5003;62753;40.394;-80.022;2023-04-24T04:50:39;5;4;
74333;PMS5003;62753;40.394;-80.022;2023-04-24T04:53:04;7;5;
74333;PMS5003;62753;40.394;-80.022;2023-04-24T04:55:30;6;5;
74333;PMS5003;62753;40.394;-80.022;2023-04-24T04:57:56;4;4;
74333;PMS5003;62753;40.394;-80.022;2023-04-24T05:00:21;8;8;
74333;PMS5003;62753;40.394;-80.022;2023-04-24T05:02:47;6;6;
74333;PMS5003;62753;40.394;-80.022;2023-04-24T05:05:12;5;5;
74333;PMS5003;62753;40.394;-80.022;2023-04-24T05:07:38;5;5;
74333;PMS5003;62753;40.394;-80.022;2023-04-24T05:10:03;6;5;
74333;PMS5003;62753;40.394;-80.022;2023-04-24T05:12:28;6;6;
74333;PMS5003;62753;40.394;-80.022;2023-04-24T05:14:54;7;5;
74333;PMS5003;62753;40.394;-80.022;2023-04-24T05:17:20;5;5;
74333;PMS5003;62753;40.394;-80.022;2023-04-24T05:19:45;5;5;
74333;PMS5003;62753;40.394;-80.022;2023-04-24T05:22:11;5;5;
74333;PMS5003;62753;40.394;-80.022;2023-04-24T05:24:36;5;5;
74333;PMS5003;62753;40.394;-80.022;2023-04-24T05:27:02;6;6;
74333;PMS5003;62753;40.394;-80.022;2023-04-24T05:29:27;5;4;
74333;PMS5003;62753;40.394;-80.022;2023-04-24T05:31:53;6;6;
74333;PMS5003;62753;40.394;-80.022;2023-04-24T05:34:18;5;5;
74333;PMS5003;62753;40.394;-80.022;2023-04-24T05:36:49;4;4;
74333;PMS5003;62753;40.394;-80.022;2023-04-24T05:39:09;5;5;
74333;PMS5003;62753;40.394;-80.022;2023-04-24T05:41:34;7;6;
74333;PMS5003;62753;40.394;-80.022;2023-04-24T05:44:00;7;7;
74333;PMS5003;62753;40.394;-80.022;2023-04-24T05:46:25;7;6;
74333;PMS5003;62753;40.394;-80.022;2023-04-24T05:48:51;7;6;
74333;PMS5003;62753;40.394;-80.022;2023-04-24T05:51:16;6;6;
74333;PMS5003;62753;40.394;-80.022;2023-04-24T05:53:42;7;7;
74333;PMS5003;62753;40.394;-80.022;2023-04-24T05:56:08;8;8;
74333;PMS5003;62753;40.394;-80.022;2023-04-24T05:58:33;7;7;
74333;PMS5003;62753;40.394;-80.022;2023-04-24T06:00:58;8;8;
74333;PMS5003;62753;40.394;-80.022;2023-04-24T06:03:24;10;10;
74333;PMS5003;62753;40.394;-80.022;2023-04-24T06:05:50;10;10;
74333;PMS5003;62753;40.394;-80.022;2023-04-24T06:08:15;9;9;
74333;PMS5003;62753;40.394;-80.022;2023-04-24T06:10:41;8;7;
74333;PMS5003;62753;40.394;-80.022;2023-04-24T06:13:06;11;9;
74333;PMS5003;62753;40.394;-80.022;2023-04-24T06:15:33;10;10;
74333;PMS5003;62753;40.394;-80.022;2023-04-24T06:17:57;10;9;
74333;PMS5003;62753;40.394;-80.022;2023-04-24T06:20:24;11;10;
74333;PMS5003;62753;40.394;-80.022;2023-04-24T06:22:48;11;10;
74333;PMS5003;62753;40.394;-80.022;2023-04-24T06:25:14;11;11;
74333;PMS5003;62753;40.394;-80.022;2023-04-24T06:27:39;7;7;
74333;PMS5003;62753;40.394;-80.022;2023-04-24T06:30:06;13;9;
74333;PMS5003;62753;40.394;-80.022;2023-04-24T06:32:30;8;8;
74333;PMS5003;62753;40.394;-80.022;2023-04-24T06:34:56;8;8;
74333;PMS5003;62753;40.394;-80.022;2023-04-24T06:37:21;8;7;
74333;PMS5003;62753;40.394;-80.022;2023-04-24T06:39:47;10;6;
74333;PMS5003;62753;40.394;-80.022;2023-04-24T06:42:12;8;8;
74333;PMS5003;62753;40.394;-80.022;2023-04-24T06:44:38;8;7;
74333;PMS5003;62753;40.394;-80.022;2023-04-24T06:47:03;7;7;
74333;PMS5003;62753;40.394;-80.022;2023-04-24T06:49:29;7;7;
74333;PMS5003;62753;40.394;-80.022;2023-04-24T06:51:55;8;7;
74333;PMS5003;62753;40.394;-80.022;2023-04-24T06:54:20;8;7;
74333;PMS5003;62753;40.394;-80.022;2023-04-24T06:56:46;6;6;
74333;PMS5003;62753;40.394;-80.022;2023-04-24T06:59:11;7;6;
74333;PMS5003;62753;40.394;-80.022;2023-04-24T07:01:36;7;7;
74333;PMS5003;62753;40.394;-80.022;2023-04-24T07:04:02;7;7;
74333;PMS5003;62753;40.394;-80.022;2023-04-24T07:06:28;7;7;
74333;PMS5003;62753;40.394;-80.022;2023-04-24T07:08:53;8;7;
74333;PMS5003;62753;40.394;-80.022;2023-04-24T07:11:19;7;6;
74333;PMS5003;62753;40.394;-80.022;2023-04-24T07:13:44;5;5;
74333;PMS5003;62753;40.394;-80.022;2023-04-24T07:16:10;6;6;
74333;PMS5003;62753;40.394;-80.022;2023-04-24T07:18:35;7;6;
74333;PMS5003;62753;40.394;-80.022;2023-04-24T07:21:01;7;7;
74333;PMS5003;62753;40.394;-80.022;2023-04-24T07:23:26;8;8;
74333;PMS5003;62753;40.394;-80.022;2023-04-24T07:25:52;8;7;
74333;PMS5003;62753;40.394;-80.022;2023-04-24T07:28:17;6;5;
74333;PMS5003;62753;40.394;-80.022;2023-04-24T07:30:43;6;5;
74333;PMS5003;62753;40.394;-80.022;2023-04-24T07:33:08;8;6;
74333;PMS5003;62753;40.394;-80.022;2023-04-24T07:35:34;7;6;
74333;PMS5003;62753;40.394;-80.022;2023-04-24T07:37:59;8;7;
74333;PMS5003;62753;40.394;-80.022;2023-04-24T07:40:25;7;7;
74333;PMS5003;62753;40.394;-80.022;2023-04-24T07:42:51;6;6;
74333;PMS5003;62753;40.394;-80.022;2023-04-24T07:45:16;5;5;
74333;PMS5003;62753;40.394;-80.022;2023-04-24T07:47:42;6;6;
74333;PMS5003;62753;40.394;-80.022;2023-04-24T07:50:08;6;5;
74333;PMS5003;62753;40.394;-80.022;2023-04-24T07:52:33;7;5;
74333;PMS5003;62753;40.394;-80.022;2023-04-24T07:54:58;7;7;
74333;PMS5003;62753;40.394;-80.022;2023-04-24T07:57:24;8;7;
74333;PMS5003;62753;40.394;-80.022;2023-04-24T07:59:50;7;7;
74333;PMS5003;62753;40.394;-80.022;2023-04-24T08:02:15;7;7;
74333;PMS5003;62753;40.394;-80.022;2023-04-24T08:04:40;7;6;
74333;PMS5003;62753;40.394;-80.022;2023-04-24T08:07:06;6;6;
74333;PMS5003;62753;40.394;-80.022;2023-04-24T08:09:31;6;5;
74333;PMS5003;62753;40.394;-80.022;2023-04-24T08:11:57;8;7;
74333;PMS5003;62753;40.394;-80.022;2023-04-24T08:14:22;7;7;
74333;PMS5003;62753;40.394;-80.022;2023-04-24T08:16:48;9;8;
74333;PMS5003;62753;40.394;-80.022;2023-04-24T08:19:14;6;6;
74333;PMS5003;62753;40.394;-80.022;2023-04-24T08:21:39;9;9;
74333;PMS5003;62753;40.394;-80.022;2023-04-24T08:24:05;8;6;
74333;PMS5003;62753;40.394;-80.022;2023-04-24T08:26:30;9;9;
74333;PMS5003;62753;40.394;-80.022;2023-04-24T08:28:55;8;7;
74333;PMS5003;62753;40.394;-80.022;2023-04-24T08:31:21;9;8;
74333;PMS5003;62753;40.394;-80.022;2023-04-24T08:33:46;6;6;
74333;PMS5003;62753;40.394;-80.022;2023-04-24T08:36:12;7;6;
74333;PMS5003;62753;40.394;-80.022;2023-04-24T08:38:37;7;7;
74333;PMS5003;62753;40.394;-80.022;2023-04-24T08:41:03;8;8;
74333;PMS5003;62753;40.394;-80.022;2023-04-24T08:43:28;7;7;
74333;PMS5003;62753;40.394;-80.022;2023-04-24T08:45:55;8;8;
74333;PMS5003;62753;40.394;-80.022;2023-04-24T08:48:19;9;9;
74333;PMS5003;62753;40.394;-80.022;2023-04-24T08:50:45;9;8;
74333;PMS5003;62753;40.394;-80.022;2023-04-24T08:53:10;8;7;
74333;PMS5003;62753;40.394;-80.022;2023-04-24T08:55:36;9;9;
74333;PMS5003;62753;40.394;-80.022;2023-04-24T08:58:01;11;10;
74333;PMS5003;62753;40.394;-80.022;2023-04-24T09:00:27;7;6;
74333;PMS5003;62753;40.394;-80.022;2023-04-24T09:02:53;6;6;
74333;PMS5003;62753;40.394;-80.022;2023-04-24T09:05:18;6;6;
74333;PMS5003;62753;40.394;-80.022;2023-04-24T09:07:44;8;8;
74333;PMS5003;62753;40.394;-80.022;2023-04-24T09:10:09;9;7;
74333;PMS5003;62753;40.394;-80.022;2023-04-24T09:12:35;6;6;
74333;PMS5003;62753;40.394;-80.022;2023-04-24T09:15:00;8;8;
74333;PMS5003;62753;40.394;-80.022;2023-04-24T09:17:26;6;6;
74333;PMS5003;62753;40.394;-80.022;2023-04-24T09:19:51;6;6;
74333;PMS5003;62753;40.394;-80.022;2023-04-24T09:22:17;7;7;
74333;PMS5003;62753;40.394;-80.022;2023-04-24T09:24:42;8;8;
74333;PMS5003;62753;40.394;-80.022;2023-04-24T09:27:08;7;7;
74333;PMS5003;62753;40.394;-80.022;2023-04-24T09:29:34;7;6;
74333;PMS5003;62753;40.394;-80.022;2023-04-24T09:31:59;8;7;
74333;PMS5003;62753;40.394;-80.022;2023-04-24T09:34:25;7;7;
74333;PMS5003;62753;40.394;-80.022;2023-04-24T09:36:50;6;6;
74333;PMS5003;62753;40.394;-80.022;2023-04-24T09:39:16;7;6;
74333;PMS5003;62753;40.394;-80.022;2023-04-24T09:41:43;7;6;
74333;PMS5003;62753;40.394;-80.022;2023-04-24T09:44:11;10;9;
74333;PMS5003;62753;40.394;-80.022;2023-04-24T09:46:32;9;7;
74333;PMS5003;62753;40.394;-80.022;2023-04-24T09:48:58;8;8;
74333;PMS5003;62753;40.394;-80.022;2023-04-24T09:53:48;9;9;
74333;PMS5003;62753;40.394;-80.022;2023-04-24T09:56:14;8;8;
74333;PMS5003;62753;40.394;-80.022;2023-04-24T09:58:39;9;8;
74333;PMS5003;62753;40.394;-80.022;2023-04-24T10:01:05;8;8;
74333;PMS5003;62753;40.394;-80.022;2023-04-24T10:03:31;8;7;
74333;PMS5003;62753;40.394;-80.022;2023-04-24T10:05:58;8;7;
74333;PMS5003;62753;40.394;-80.022;2023-04-24T10:08:22;6;5;
74333;PMS5003;62753;40.394;-80.022;2023-04-24T10:10:47;7;7;
74333;PMS5003;62753;40.394;-80.022;2023-04-24T10:13:13;7;7;
74333;PMS5003;62753;40.394;-80.022;2023-04-24T10:15:39;9;8;
74333;PMS5003;62753;40.394;-80.022;2023-04-24T10:18:05;9;9;
74333;PMS5003;62753;40.394;-80.022;2023-04-24T10:20:29;10;8;
74333;PMS5003;62753;40.394;-80.022;2023-04-24T10:22:56;10;9;
74333;PMS5003;62753;40.394;-80.022;2023-04-24T10:25:21;9;7;
74333;PMS5003;62753;40.394;-80.022;2023-04-24T10:27:47;7;7;
74333;PMS5003;62753;40.394;-80.022;2023-04-24T10:30:12;9;7;
74333;PMS5003;62753;40.394;-80.022;2023-04-24T10:32:37;9;8;
74333;PMS5003;62753;40.394;-80.022;2023-04-24T10:35:03;8;8;
74333;PMS5003;62753;40.394;-80.022;2023-04-24T10:37:28;9;7;
74333;PMS5003;62753;40.394;-80.022;2023-04-24T10:39:54;9;8;
74333;PMS5003;62753;40.394;-80.022;2023-04-24T10:42:20;12;11;
74333;PMS5003;62753;40.394;-80.022;2023-04-24T10:44:47;8;8;
74333;PMS5003;62753;40.394;-80.022;2023-04-24T10:47:12;9;8;
74333;PMS5003;62753;40.394;-80.022;2023-04-24T10:49:36;11;11;
74333;PMS5003;62753;40.394;-80.022;2023-04-24T10:52:02;8;8;
74333;PMS5003;62753;40.394;-80.022;2023-04-24T10:54:28;10;10;
74333;PMS5003;62753;40.394;-80.022;2023-04-24T10:56:52;11;10;
74333;PMS5003;62753;40.394;-80.022;2023-04-24T10:59:24;11;10;
74333;PMS5003;62753;40.394;-80.022;2023-04-24T11:01:45;14;12;
74333;PMS5003;62753;40.394;-80.022;2023-04-24T11:04:09;11;11;
74333;PMS5003;62753;40.394;-80.022;2023-04-24T11:06:35;12;11;
74333;PMS5003;62753;40.394;-80.022;2023-04-24T11:09:02;9;8;
74333;PMS5003;62753;40.394;-80.022;2023-04-24T11:11:28;9;9;
74333;PMS5003;62753;40.394;-80.022;2023-04-24T11:16:20;10;10;
74333;PMS5003;62753;40.394;-80.022;2023-04-24T11:18:42;12;11;
74333;PMS5003;62753;40.394;-80.022;2023-04-24T11:21:10;15;15;
74333;PMS5003;62753;40.394;-80.022;2023-04-24T11:23:35;8;8;
74333;PMS5003;62753;40.394;-80.022;2023-04-24T11:28:23;11;10;
74333;PMS5003;62753;40.394;-80.022;2023-04-24T11:30:49;14;12;
74333;PMS5003;62753;40.394;-80.022;2023-04-24T11:33:15;13;11;
74333;PMS5003;62753;40.394;-80.022;2023-04-24T11:35:40;12;12;
74333;PMS5003;62753;40.394;-80.022;2023-04-24T11:38:05;13;13;
74333;PMS5003;62753;40.394;-80.022;2023-04-24T11:40:31;11;10;
74333;PMS5003;62753;40.394;-80.022;2023-04-24T11:42:56;11;11;
74333;PMS5003;62753;40.394;-80.022;2023-04-24T11:45:23;10;10;
74333;PMS5003;62753;40.394;-80.022;2023-04-24T11:47:47;11;11;
74333;PMS5003;62753;40.394;-80.022;2023-04-24T11:50:14;12;12;
74333;PMS5003;62753;40.394;-80.022;2023-04-24T11:52:39;12;11;
74333;PMS5003;62753;40.394;-80.022;2023-04-24T11:55:04;12;11;
74333;PMS5003;62753;40.394;-80.022;2023-04-24T11:57:29;14;13;
74333;PMS5003;62753;40.394;-80.022;2023-04-24T11:59:55;10;10;
74333;PMS5003;62753;40.394;-80.022;2023-04-24T12:02:21;11;11;
74333;PMS5003;62753;40.394;-80.022;2023-04-24T12:04:46;15;15;
74333;PMS5003;62753;40.394;-80.022;2023-04-24T12:07:12;12;12;
74333;PMS5003;62753;40.394;-80.022;2023-04-24T12:09:40;10;10;
74333;PMS5003;62753;40.394;-80.022;2023-04-24T12:12:02;12;12;
74333;PMS5003;62753;40.394;-80.022;2023-04-24T12:14:28;13;13;
74333;PMS5003;62753;40.394;-80.022;2023-04-24T12:16:53;12;12;
74333;PMS5003;62753;40.394;-80.022;2023-04-24T12:19:20;12;11;
74333;PMS5003;62753;40.394;-80.022;2023-04-24T12:21:44;12;11;
74333;PMS5003;62753;40.394;-80.022;2023-04-24T12:24:10;12;10;
74333;PMS5003;62753;40.394;-80.022;2023-04-24T12:26:35;11;10;
74333;PMS5003;62753;40.394;-80.022;2023-04-24T12:29:01;12;12;
74333;PMS5003;62753;40.394;-80.022;2023-04-24T12:31:26;14;12;
74333;PMS5003;62753;40.394;-80.022;2023-04-24T12:33:51;12;10;
74333;PMS5003;62753;40.394;-80.022;2023-04-24T12:36:16;10;10;
74333;PMS5003;62753;40.394;-80.022;2023-04-24T12:38:43;12;11;
74333;PMS5003;62753;40.394;-80.022;2023-04-24T12:41:08;14;12;
74333;PMS5003;62753;40.394;-80.022;2023-04-24T12:43:33;11;11;
74333;PMS5003;62753;40.394;-80.022;2023-04-24T12:45:58;14;13;
74333;PMS5003;62753;40.394;-80.022;2023-04-24T12:48:23;12;11;
74333;PMS5003;62753;40.394;-80.022;2023-04-24T12:50:49;15;14;
74333;PMS5003;62753;40.394;-80.022;2023-04-24T12:53:15;11;11;
74333;PMS5003;62753;40.394;-80.022;2023-04-24T12:55:40;13;12;
74333;PMS5003;62753;40.394;-80.022;2023-04-24T12:58:05;12;12;
74333;PMS5003;62753;40.394;-80.022;2023-04-24T13:00:31;12;12;
74333;PMS5003;62753;40.394;-80.022;2023-04-24T13:02:56;13;12;
74333;PMS5003;62753;40.394;-80.022;2023-04-24T13:05:22;10;10;
74333;PMS5003;62753;40.394;-80.022;2023-04-24T13:07:48;11;11;
74333;PMS5003;62753;40.394;-80.022;2023-04-24T13:10:13;10;10;
74333;PMS5003;62753;40.394;-80.022;2023-04-24T13:12:39;16;14;
74333;PMS5003;62753;40.394;-80.022;2023-04-24T13:15:05;12;11;
74333;PMS5003;62753;40.394;-80.022;2023-04-24T13:17:30;11;10;
74333;PMS5003;62753;40.394;-80.022;2023-04-24T13:19:55;12;12;
74333;PMS5003;62753;40.394;-80.022;2023-04-24T13:22:21;12;12;
74333;PMS5003;62753;40.394;-80.022;2023-04-24T13:24:46;13;13;
74333;PMS5003;62753;40.394;-80.022;2023-04-24T13:27:12;10;10;
74333;PMS5003;62753;40.394;-80.022;2023-04-24T13:29:37;14;13;
74333;PMS5003;62753;40.394;-80.022;2023-04-24T13:32:03;14;13;
74333;PMS5003;62753;40.394;-80.022;2023-04-24T13:34:28;12;12;
74333;PMS5003;62753;40.394;-80.022;2023-04-24T13:36:54;13;13;
74333;PMS5003;62753;40.394;-80.022;2023-04-24T13:39:19;16;14;
74333;PMS5003;62753;40.394;-80.022;2023-04-24T13:41:45;16;14;
74333;PMS5003;62753;40.394;-80.022;2023-04-24T13:44:10;21;20;
74333;PMS5003;62753;40.394;-80.022;2023-04-24T13:46:35;21;17;
74333;PMS5003;62753;40.394;-80.022;2023-04-24T13:49:02;13;13;
74333;PMS5003;62753;40.394;-80.022;2023-04-24T13:51:26;13;12;
74333;PMS5003;62753;40.394;-80.022;2023-04-24T13:53:52;12;11;
74333;PMS5003;62753;40.394;-80.022;2023-04-24T13:56:23;13;11;
74333;PMS5003;62753;40.394;-80.022;2023-04-24T13:58:43;13;12;
74333;PMS5003;62753;40.394;-80.022;2023-04-24T14:01:08;10;10;
74333;PMS5003;62753;40.394;-80.022;2023-04-24T14:03:35;12;11;
74333;PMS5003;62753;40.394;-80.022;2023-04-24T14:06:00;12;11;
74333;PMS5003;62753;40.394;-80.022;2023-04-24T14:08:25;15;12;
74333;PMS5003;62753;40.394;-80.022;2023-04-24T14:10:51;15;13;
74333;PMS5003;62753;40.394;-80.022;2023-04-24T14:13:16;12;12;
74333;PMS5003;62753;40.394;-80.022;2023-04-24T14:15:41;14;12;
74333;PMS5003;62753;40.394;-80.022;2023-04-24T14:18:07;12;12;
74333;PMS5003;62753;40.394;-80.022;2023-04-24T14:20:32;12;11;
74333;PMS5003;62753;40.394;-80.022;2023-04-24T14:22:58;12;11;
74333;PMS5003;62753;40.394;-80.022;2023-04-24T14:25:23;12;12;
74333;PMS5003;62753;40.394;-80.022;2023-04-24T14:27:49;15;15;
74333;PMS5003;62753;40.394;-80.022;2023-04-24T14:30:13;17;15;
74333;PMS5003;62753;40.394;-80.022;2023-04-24T14:32:39;17;15;
74333;PMS5003;62753;40.394;-80.022;2023-04-24T14:35:04;15;14;
74333;PMS5003;62753;40.394;-80.022;2023-04-24T14:37:30;14;13;
74333;PMS5003;62753;40.394;-80.022;2023-04-24T14:39:55;16;15;
74333;PMS5003;62753;40.394;-80.022;2023-04-24T14:42:20;13;13;
74333;PMS5003;62753;40.394;-80.022;2023-04-24T14:44:45;11;11;
74333;PMS5003;62753;40.394;-80.022;2023-04-24T14:47:10;12;11;
74333;PMS5003;62753;40.394;-80.022;2023-04-24T14:49:36;15;14;
74333;PMS5003;62753;40.394;-80.022;2023-04-24T14:52:01;13;13;
74333;PMS5003;62753;40.394;-80.022;2023-04-24T14:54:27;13;12;
74333;PMS5003;62753;40.394;-80.022;2023-04-24T14:56:52;8;8;
74333;PMS5003;62753;40.394;-80.022;2023-04-24T14:59:18;7;7;
74333;PMS5003;62753;40.394;-80.022;2023-04-24T15:01:43;9;8;
74333;PMS5003;62753;40.394;-80.022;2023-04-24T15:04:08;7;6;
74333;PMS5003;62753;40.394;-80.022;2023-04-24T15:06:34;6;6;
74333;PMS5003;62753;40.394;-80.022;2023-04-24T15:08:59;10;8;
74333;PMS5003;62753;40.394;-80.022;2023-04-24T15:11:25;10;8;
74333;PMS5003;62753;40.394;-80.022;2023-04-24T15:13:50;9;9;
74333;PMS5003;62753;40.394;-80.022;2023-04-24T15:16:15;9;8;
74333;PMS5003;62753;40.394;-80.022;2023-04-24T15:18:41;11;10;
74333;PMS5003;62753;40.394;-80.022;2023-04-24T15:21:06;14;12;
74333;PMS5003;62753;40.394;-80.022;2023-04-24T15:23:32;11;10;
74333;PMS5003;62753;40.394;-80.022;2023-04-24T15:25:57;14;13;
74333;PMS5003;62753;40.394;-80.022;2023-04-24T15:28:22;13;12;
74333;PMS5003;62753;40.394;-80.022;2023-04-24T15:30:48;12;12;
74333;PMS5003;62753;40.394;-80.022;2023-04-24T15:33:13;14;14;
74333;PMS5003;62753;40.394;-80.022;2023-04-24T15:35:39;13;11;
74333;PMS5003;62753;40.394;-80.022;2023-04-24T15:38:04;11;11;
74333;PMS5003;62753;40.394;-80.022;2023-04-24T15:40:29;10;10;
74333;PMS5003;62753;40.394;-80.022;2023-04-24T15:42:55;13;12;
74333;PMS5003;62753;40.394;-80.022;2023-04-24T15:45:20;11;11;
74333;PMS5003;62753;40.394;-80.022;2023-04-24T15:47:46;11;11;
74333;PMS5003;62753;40.394;-80.022;2023-04-24T15:50:11;12;12;
74333;PMS5003;62753;40.394;-80.022;2023-04-24T15:52:36;13;13;
74333;PMS5003;62753;40.394;-80.022;2023-04-24T15:55:02;13;13;
74333;PMS5003;62753;40.394;-80.022;2023-04-24T15:57:27;9;9;
74333;PMS5003;62753;40.394;-80.022;2023-04-24T15:59:53;11;10;
74333;PMS5003;62753;40.394;-80.022;2023-04-24T16:02:18;11;10;